Time;durP1;ratioP1;P1;durP2;ratioP2;P2;SDS_P1;SDS_P2;PMS_P1;PMS_P2;Temp;Humidity;BMP_temperature;BMP_pressure;BME280_temperature;BME280_humidity;BME280_pressure;Samples;Min_cycle;Max_cycle;Signal;HPM_P1;HPM_P2
2023/08/13 00:00:07;;;;;;;10.07;4.65;;;15.20;65.40;;;;;;5055648;28;20033;-63
2023/08/13 00:02:35;;;;;;;9.20;3.90;;;15.30;65.00;;;;;;5054811;28;20032;-63
2023/08/13 00:05:04;;;;;;;6.85;3.88;;;15.50;64.50;;;;;;5055554;28;20040;-64
2023/08/13 00:07:32;;;;;;;7.40;4.20;;;15.80;64.00;;;;;;5054341;28;20135;-63
2023/08/13 00:09:59;;;;;;;8.32;4.53;;;16.00;63.20;;;;;;5054553;28;20100;-62
2023/08/13 00:12:27;;;;;;;8.73;4.30;;;16.10;62.40;;;;;;5054557;28;20021;-63
2023/08/13 00:14:54;;;;;;;9.32;4.47;;;16.00;61.70;;;;;;5054610;28;20056;-62
2023/08/13 00:17:22;;;;;;;16.02;7.45;;;16.20;61.60;;;;;;5055441;28;20025;-62
2023/08/13 00:19:50;;;;;;;9.65;5.10;;;16.60;61.30;;;;;;5054508;28;20025;-62
2023/08/13 00:22:18;;;;;;;11.18;4.82;;;16.70;60.40;;;;;;5054324;28;20032;-63
2023/08/13 00:24:45;;;;;;;8.35;4.80;;;16.80;59.90;;;;;;5055198;28;20067;-63
2023/08/13 00:27:13;;;;;;;10.77;5.05;;;17.50;57.90;;;;;;5055148;28;20511;-62
2023/08/13 00:29:40;;;;;;;7.40;4.75;;;18.00;56.10;;;;;;5055137;28;20042;-63
2023/08/13 00:32:08;;;;;;;8.63;4.88;;;18.60;54.30;;;;;;5055133;28;20029;-63
2023/08/13 00:34:35;;;;;;;9.07;4.88;;;18.70;54.20;;;;;;5055162;28;20017;-63
2023/08/13 00:37:03;;;;;;;7.75;4.45;;;18.80;53.40;;;;;;5053716;28;20047;-63
2023/08/13 00:39:30;;;;;;;7.18;4.10;;;18.80;53.40;;;;;;5054736;28;20075;-63
2023/08/13 00:41:58;;;;;;;8.35;4.40;;;19.20;53.30;;;;;;5054919;28;20044;-63
2023/08/13 00:44:25;;;;;;;7.28;4.03;;;19.50;52.10;;;;;;5053878;28;20037;-65
2023/08/13 00:46:54;;;;;;;5.68;3.47;;;19.60;52.50;;;;;;5053716;28;20052;-64
2023/08/13 00:49:23;;;;;;;6.40;3.70;;;19.90;52.00;;;;;;5053661;28;20016;-64
2023/08/13 00:51:51;;;;;;;8.02;3.40;;;20.10;50.50;;;;;;5054916;28;20021;-64
2023/08/13 00:54:21;;;;;;;7.60;3.65;;;19.80;50.90;;;;;;5054886;28;20021;-64
2023/08/13 00:56:52;;;;;;;6.72;3.88;;;19.90;50.60;;;;;;5053755;28;20040;-64
2023/08/13 00:59:21;;;;;;;7.07;3.53;;;19.90;50.80;;;;;;5054869;28;20100;-62
2023/08/13 01:01:48;;;;;;;5.85;3.60;;;20.20;50.90;;;;;;5053813;28;20029;-62
2023/08/13 01:04:16;;;;;;;5.80;3.40;;;19.80;50.40;;;;;;5054864;28;20021;-63
2023/08/13 01:06:52;;;;;;;6.53;3.80;;;19.70;50.50;;;;;;5053458;28;20348;-63
2023/08/13 01:09:32;;;;;;;10.15;4.40;;;19.60;50.90;;;;;;5054771;28;20024;-63
2023/08/13 01:12:36;;;;;;;7.95;4.38;;;19.60;51.40;;;;;;5054675;28;20451;-63
2023/08/13 01:15:19;;;;;;;8.15;4.10;;;20.70;48.80;;;;;;5053482;28;20116;-63
2023/08/13 01:17:51;;;;;;;6.18;4.07;;;21.20;48.50;;;;;;5053528;28;20029;-63
2023/08/13 01:20:18;;;;;;;9.95;4.63;;;20.30;48.90;;;;;;5054637;28;20033;-63
2023/08/13 01:22:50;;;;;;;6.20;3.50;;;20.50;49.80;;;;;;5054437;28;20652;-64
2023/08/13 01:25:18;;;;;;;7.43;3.90;;;21.10;48.30;;;;;;5053370;28;20067;-62
2023/08/13 01:27:58;;;;;;;7.30;3.25;;;21.60;47.50;;;;;;5054367;28;20108;-63
2023/08/13 01:30:49;;;;;;;7.32;2.92;;;22.40;45.60;;;;;;5054353;28;20017;-63
2023/08/13 01:33:30;;;;;;;7.63;3.70;;;21.40;46.40;;;;;;5053599;28;20048;-64
2023/08/13 01:35:59;;;;;;;6.28;3.17;;;21.10;47.30;;;;;;5053405;28;20052;-63
2023/08/13 01:38:29;;;;;;;8.00;3.40;;;21.70;46.10;;;;;;5053507;28;20444;-64
2023/08/13 01:41:01;;;;;;;7.60;3.53;;;21.70;46.60;;;;;;5053492;28;20359;-64
2023/08/13 01:43:28;;;;;;;9.40;4.85;;;21.10;46.70;;;;;;5053395;28;20036;-63
2023/08/13 01:45:57;;;;;;;7.72;5.18;;;20.60;47.80;;;;;;5054212;28;20451;-63
2023/08/13 01:48:24;;;;;;;7.75;4.47;;;20.00;48.80;;;;;;5053187;28;20021;-63
2023/08/13 01:50:52;;;;;;;7.32;4.75;;;19.20;50.60;;;;;;5054249;28;20355;-62
2023/08/13 01:53:19;;;;;;;7.47;4.78;;;19.40;50.70;;;;;;5054216;28;20032;-64
2023/08/13 01:55:47;;;;;;;8.70;4.22;;;19.10;50.60;;;;;;5054344;28;20025;-63
2023/08/13 01:58:14;;;;;;;7.38;3.83;;;19.20;51.50;;;;;;5054215;28;20025;-63
2023/08/13 02:00:42;;;;;;;5.30;3.17;;;19.20;51.40;;;;;;5057615;28;20021;-64
2023/08/13 02:03:10;;;;;;;5.65;3.67;;;19.80;50.80;;;;;;5056946;28;20039;-64
2023/08/13 02:05:38;;;;;;;10.13;4.78;;;19.70;50.00;;;;;;5057539;28;20029;-64
2023/08/13 02:08:06;;;;;;;8.05;4.50;;;19.60;50.70;;;;;;5057815;28;20443;-64
2023/08/13 02:10:33;;;;;;;6.38;3.50;;;19.40;50.80;;;;;;5056882;28;20112;-64
2023/08/13 02:13:01;;;;;;;4.97;3.45;;;19.70;50.40;;;;;;5057802;28;20104;-63
2023/08/13 02:15:29;;;;;;;6.47;3.10;;;20.00;49.70;;;;;;5057807;28;20033;-64
2023/08/13 02:17:56;;;;;;;4.55;3.10;;;20.10;49.10;;;;;;5056658;28;20048;-64
2023/08/13 02:20:23;;;;;;;5.35;2.72;;;19.90;49.70;;;;;;5056594;28;20363;-64
2023/08/13 02:22:51;;;;;;;5.30;3.08;;;20.00;49.00;;;;;;5056774;28;20025;-63
2023/08/13 02:25:18;;;;;;;5.13;3.35;;;19.80;50.00;;;;;;5056473;28;20028;-63
2023/08/13 02:27:46;;;;;;;5.43;3.25;;;20.20;49.00;;;;;;5056485;28;20470;-63
2023/08/13 02:30:15;;;;;;;6.00;3.22;;;20.10;49.50;;;;;;5057394;28;20092;-64
2023/08/13 02:32:42;;;;;;;6.50;3.22;;;20.20;49.60;;;;;;5057445;28;20017;-63
2023/08/13 02:35:10;;;;;;;6.30;3.33;;;20.30;48.80;;;;;;5057398;28;20016;-69
2023/08/13 02:37:38;;;;;;;6.25;3.72;;;20.20;49.60;;;;;;5056049;28;20037;-70
2023/08/13 02:40:06;;;;;;;8.52;3.45;;;20.50;49.50;;;;;;5056202;28;20350;-69
2023/08/13 02:42:34;;;;;;;5.75;2.92;;;20.30;48.70;;;;;;5056084;28;20021;-69
2023/08/13 02:45:02;;;;;;;6.80;3.72;;;20.00;49.90;;;;;;5056927;28;20032;-69
2023/08/13 02:47:30;;;;;;;8.18;4.28;;;19.80;49.70;;;;;;5056861;28;20021;-69
2023/08/13 02:49:57;;;;;;;7.55;3.35;;;19.80;50.40;;;;;;5055969;28;20352;-70
2023/08/13 02:52:25;;;;;;;7.43;3.95;;;19.70;50.20;;;;;;5056903;28;20443;-70
2023/08/13 02:54:52;;;;;;;8.23;3.85;;;19.70;50.10;;;;;;5056919;28;20382;-70
2023/08/13 02:57:20;;;;;;;5.57;3.10;;;19.60;50.40;;;;;;5055794;28;20021;-68
2023/08/13 02:59:47;;;;;;;7.40;4.15;;;19.80;50.60;;;;;;5056760;28;20017;-69
2023/08/13 03:02:16;;;;;;;6.93;3.30;;;19.80;49.60;;;;;;5056736;28;20063;-69
2023/08/13 03:04:44;;;;;;;5.25;3.15;;;20.10;49.40;;;;;;5056654;28;20074;-69
2023/08/13 03:07:11;;;;;;;6.00;2.78;;;20.30;49.00;;;;;;5055322;28;20139;-68
2023/08/13 03:09:39;;;;;;;4.18;2.70;;;20.30;49.80;;;;;;5056386;28;20063;-69
2023/08/13 03:12:08;;;;;;;4.60;2.38;;;20.40;49.70;;;;;;5054460;28;20025;-68
2023/08/13 03:14:36;;;;;;;4.60;2.10;;;21.10;47.60;;;;;;5055673;28;20028;-68
2023/08/13 03:17:03;;;;;;;3.88;1.90;;;22.00;45.80;;;;;;5055538;28;20111;-69
2023/08/13 03:19:31;;;;;;;2.53;1.30;;;22.40;45.00;;;;;;5056630;28;20044;-69
2023/08/13 03:21:59;;;;;;;4.05;1.13;;;21.80;45.90;;;;;;5054907;28;20546;-70
2023/08/13 03:24:26;;;;;;;1.63;0.77;;;21.40;46.70;;;;;;5056149;28;20032;-70
2023/08/13 03:26:54;;;;;;;2.95;0.95;;;21.00;47.10;;;;;;5056221;28;20351;-70
2023/08/13 03:29:21;;;;;;;1.42;0.73;;;20.60;47.70;;;;;;5056383;28;20442;-70
2023/08/13 03:31:49;;;;;;;1.50;0.80;;;20.40;47.90;;;;;;5056312;28;20044;-70
2023/08/13 03:34:16;;;;;;;1.25;0.73;;;20.40;48.50;;;;;;5056307;28;20013;-70
2023/08/13 03:36:44;;;;;;;1.67;0.70;;;20.10;48.70;;;;;;5055199;28;20152;-71
2023/08/13 03:39:11;;;;;;;3.20;1.00;;;20.00;48.30;;;;;;5056230;28;20355;-70
2023/08/13 03:41:38;;;;;;;2.85;1.00;;;19.80;49.70;;;;;;5054843;28;20029;-69
2023/08/13 03:44:06;;;;;;;1.55;0.80;;;19.70;49.80;;;;;;5056190;28;20056;-70
2023/08/13 03:46:34;;;;;;;3.10;1.10;;;19.60;50.30;;;;;;5056060;28;20352;-70
2023/08/13 03:49:01;;;;;;;2.03;0.80;;;19.50;50.00;;;;;;5056017;28;20406;-70
2023/08/13 03:51:29;;;;;;;2.90;0.80;;;19.20;50.70;;;;;;5055841;28;20059;-70
2023/08/13 03:53:57;;;;;;;2.45;0.90;;;19.10;50.90;;;;;;5054554;28;20025;-70
2023/08/13 03:56:25;;;;;;;4.18;1.63;;;19.00;52.20;;;;;;5054714;28;20076;-69
2023/08/13 03:58:53;;;;;;;4.40;1.30;;;18.60;53.90;;;;;;5055601;28;20036;-74
2023/08/13 04:01:21;;;;;;;2.25;0.80;;;18.50;54.60;;;;;;5055380;28;20059;-73
2023/08/13 04:03:48;;;;;;;5.50;1.52;;;18.30;54.80;;;;;;5055705;28;20025;-70
2023/08/13 04:06:16;;;;;;;1.75;0.80;;;18.20;55.90;;;;;;5054425;28;20045;-70
2023/08/13 04:08:43;;;;;;;5.32;1.70;;;18.10;55.90;;;;;;5055506;28;20044;-70
2023/08/13 04:11:11;;;;;;;5.40;2.00;;;18.10;55.90;;;;;;5055342;28;20351;-69
2023/08/13 04:13:39;;;;;;;2.42;1.05;;;18.10;56.30;;;;;;5055715;28;20140;-68
2023/08/13 04:16:06;;;;;;;4.00;1.42;;;18.00;57.30;;;;;;5054550;28;20123;-68
2023/08/13 04:18:34;;;;;;;4.97;1.88;;;18.00;58.50;;;;;;5055274;28;20025;-68
2023/08/13 04:21:01;;;;;;;2.88;1.10;;;18.10;57.80;;;;;;5055289;28;20104;-69
2023/08/13 04:23:28;;;;;;;3.95;1.10;;;18.00;58.20;;;;;;5053859;28;20041;-68
2023/08/13 04:25:56;;;;;;;2.90;0.93;;;18.10;57.50;;;;;;5054231;28;20028;-68
2023/08/13 04:28:23;;;;;;;2.80;0.90;;;18.00;58.50;;;;;;5055087;28;20048;-68
2023/08/13 04:30:51;;;;;;;2.72;1.10;;;18.00;59.00;;;;;;5054266;28;20021;-68
2023/08/13 04:33:19;;;;;;;2.83;0.80;;;17.80;60.10;;;;;;5055061;28;20075;-71
2023/08/13 04:35:46;;;;;;;12.38;6.60;;;17.90;59.50;;;;;;5054380;28;20029;-71
2023/08/13 04:38:13;;;;;;;2.58;1.80;;;18.00;59.70;;;;;;5054972;28;20100;-73
2023/08/13 04:40:41;;;;;;;4.95;1.65;;;18.00;59.80;;;;;;5055089;28;20021;-71
2023/08/13 04:43:08;;;;;;;3.58;0.90;;;18.00;60.90;;;;;;5054216;28;20040;-71
2023/08/13 04:45:36;;;;;;;3.53;1.30;;;18.00;61.00;;;;;;5054899;28;20025;-71
2023/08/13 04:48:04;;;;;;;3.97;1.00;;;17.80;61.90;;;;;;5055008;28;20451;-70
2023/08/13 04:50:32;;;;;;;2.83;1.05;;;18.00;62.40;;;;;;5054845;28;20027;-71
2023/08/13 04:53:00;;;;;;;3.30;0.98;;;17.90;62.70;;;;;;5053877;28;20028;-70
2023/08/13 04:55:27;;;;;;;3.22;1.02;;;17.90;63.00;;;;;;5054748;28;20029;-71
2023/08/13 04:57:55;;;;;;;7.70;2.10;;;18.00;62.50;;;;;;5054857;28;20025;-72
2023/08/13 05:00:22;;;;;;;5.05;2.33;;;17.90;63.10;;;;;;5053789;28;20108;-71
2023/08/13 05:02:50;;;;;;;5.93;1.67;;;17.50;64.00;;;;;;5053606;28;20083;-71
2023/08/13 05:05:17;;;;;;;2.92;1.10;;;17.50;64.30;;;;;;5054723;28;20036;-71
2023/08/13 05:07:46;;;;;;;2.47;1.00;;;17.50;64.10;;;;;;5054480;28;20037;-70
2023/08/13 05:10:13;;;;;;;5.00;1.10;;;17.40;64.60;;;;;;5054579;28;20075;-70
2023/08/13 05:12:41;;;;;;;3.05;1.17;;;17.20;64.90;;;;;;5053716;28;20402;-71
2023/08/13 05:15:09;;;;;;;3.65;1.00;;;17.30;66.90;;;;;;5053946;28;20237;-70
2023/08/13 05:17:36;;;;;;;4.35;1.13;;;17.20;67.20;;;;;;5053514;28;20049;-70
2023/08/13 05:20:05;;;;;;;4.88;1.42;;;17.50;67.40;;;;;;5054676;28;20017;-70
2023/08/13 05:22:33;;;;;;;3.95;1.98;;;17.60;67.20;;;;;;5054518;28;20017;-70
2023/08/13 05:25:01;;;;;;;3.03;1.05;;;17.60;68.10;;;;;;5053454;28;20036;-71
2023/08/13 05:27:28;;;;;;;6.25;1.40;;;17.50;67.70;;;;;;5054353;28;20021;-70
2023/08/13 05:29:56;;;;;;;4.15;0.90;;;17.40;68.30;;;;;;5054492;28;20067;-70
2023/08/13 05:32:24;;;;;;;4.53;1.50;;;17.40;68.30;;;;;;5054529;28;20017;-70
2023/08/13 05:34:52;;;;;;;5.72;1.50;;;17.40;68.80;;;;;;5056554;28;20017;-71
2023/08/13 05:37:20;;;;;;;6.50;1.45;;;17.10;70.70;;;;;;5057296;28;20021;-70
2023/08/13 05:39:47;;;;;;;4.63;1.30;;;16.90;71.30;;;;;;5058194;28;20017;-69
2023/08/13 05:42:15;;;;;;;5.50;1.63;;;16.80;71.70;;;;;;5058390;28;20367;-72
2023/08/13 05:44:42;;;;;;;4.10;1.42;;;16.50;72.40;;;;;;5057207;28;20473;-74
2023/08/13 05:47:10;;;;;;;2.15;1.08;;;16.30;71.80;;;;;;5056964;28;20047;-75
2023/08/13 05:49:37;;;;;;;2.88;1.10;;;16.20;72.20;;;;;;5058139;28;20517;-74
2023/08/13 05:52:06;;;;;;;5.15;1.40;;;16.10;71.90;;;;;;5058248;28;20029;-74
2023/08/13 05:54:33;;;;;;;6.03;1.55;;;16.00;72.00;;;;;;5056879;28;20067;-73
2023/08/13 05:57:01;;;;;;;3.08;0.75;;;15.90;71.20;;;;;;5057848;28;20108;-73
2023/08/13 05:59:28;;;;;;;6.97;1.55;;;16.00;71.40;;;;;;5058010;28;20067;-72
2023/08/13 06:01:56;;;;;;;3.80;1.10;;;16.00;71.80;;;;;;5057684;28;20021;-72
2023/08/13 06:04:23;;;;;;;5.35;2.22;;;15.90;71.80;;;;;;5057826;28;20347;-73
2023/08/13 06:06:50;;;;;;;8.18;1.88;;;15.90;71.80;;;;;;5056468;28;20045;-73
2023/08/13 06:09:18;;;;;;;4.63;1.25;;;16.00;71.70;;;;;;5057611;28;20347;-73
2023/08/13 06:11:46;;;;;;;3.65;0.98;;;15.90;71.20;;;;;;5056735;28;20153;-74
2023/08/13 06:14:13;;;;;;;3.50;0.90;;;15.90;71.30;;;;;;5057653;28;20443;-72
2023/08/13 06:16:41;;;;;;;3.55;1.13;;;15.90;71.30;;;;;;5057425;28;20052;-73
2023/08/13 06:19:09;;;;;;;5.47;1.90;;;15.90;70.90;;;;;;5057720;28;20029;-73
2023/08/13 06:21:36;;;;;;;4.60;1.55;;;15.90;70.30;;;;;;5057637;28;20021;-73
2023/08/13 06:24:05;;;;;;;3.58;1.30;;;15.80;70.40;;;;;;5056596;28;20159;-71
2023/08/13 06:26:36;;;;;;;3.38;1.05;;;15.90;70.30;;;;;;5057492;28;20108;-70
2023/08/13 06:29:04;;;;;;;3.72;1.33;;;15.80;70.50;;;;;;5057437;28;20036;-70
2023/08/13 06:31:31;;;;;;;6.00;1.33;;;15.80;70.90;;;;;;5057490;28;20021;-69
2023/08/13 06:33:59;;;;;;;3.70;1.30;;;15.80;70.60;;;;;;5056424;28;20044;-69
2023/08/13 06:36:26;;;;;;;3.08;0.90;;;15.60;70.90;;;;;;5057061;28;20021;-71
2023/08/13 06:38:54;;;;;;;3.17;0.93;;;15.70;71.10;;;;;;5057341;28;20040;-71
2023/08/13 06:41:21;;;;;;;7.47;1.75;;;15.70;71.60;;;;;;5057291;28;20082;-70
2023/08/13 06:43:48;;;;;;;5.63;1.35;;;15.70;71.60;;;;;;5056402;28;20055;-72
2023/08/13 06:46:16;;;;;;;3.80;1.60;;;15.60;72.00;;;;;;5057076;28;20033;-71
2023/08/13 06:48:43;;;;;;;4.68;1.40;;;15.60;72.10;;;;;;5057178;28;20020;-71
2023/08/13 06:51:11;;;;;;;4.75;1.40;;;15.60;72.70;;;;;;5056172;28;20113;-71
2023/08/13 06:53:39;;;;;;;3.08;1.00;;;15.60;72.70;;;;;;5057087;28;20021;-70
2023/08/13 06:56:07;;;;;;;4.05;1.20;;;15.50;72.60;;;;;;5056178;28;20025;-70
2023/08/13 06:58:35;;;;;;;4.60;1.05;;;15.50;73.00;;;;;;5056111;28;20443;-70
2023/08/13 07:01:05;;;;;;;4.55;1.02;;;15.60;72.80;;;;;;5055812;28;20420;-71
2023/08/13 07:03:32;;;;;;;4.15;1.40;;;15.50;71.80;;;;;;5056942;28;20056;-70
2023/08/13 07:06:00;;;;;;;4.50;1.42;;;15.40;72.10;;;;;;5055721;28;20049;-70
2023/08/13 07:08:27;;;;;;;5.38;1.60;;;15.40;71.70;;;;;;5056689;28;20131;-70
2023/08/13 07:10:55;;;;;;;7.40;1.40;;;15.40;72.10;;;;;;5055826;28;20523;-70
2023/08/13 07:13:22;;;;;;;6.07;1.40;;;15.40;71.60;;;;;;5055706;28;20383;-70
2023/08/13 07:15:50;;;;;;;2.90;0.90;;;15.30;71.90;;;;;;5056562;28;20079;-69
2023/08/13 07:18:17;;;;;;;4.03;1.10;;;15.30;71.60;;;;;;5056520;28;20020;-70
2023/08/13 07:20:45;;;;;;;5.20;1.30;;;15.30;71.90;;;;;;5056574;28;20112;-70
2023/08/13 07:23:12;;;;;;;5.88;1.10;;;15.20;72.10;;;;;;5056304;28;20100;-70
2023/08/13 07:25:40;;;;;;;7.75;2.30;;;15.20;72.40;;;;;;5055278;28;20044;-71
2023/08/13 07:28:07;;;;;;;4.80;1.48;;;15.20;72.60;;;;;;5056138;28;20025;-69
2023/08/13 07:30:35;;;;;;;4.32;1.23;;;15.20;72.80;;;;;;5056279;28;20021;-70
2023/08/13 07:33:02;;;;;;;5.35;1.45;;;15.20;73.10;;;;;;5056171;28;20027;-70
2023/08/13 07:35:30;;;;;;;3.97;1.23;;;15.20;73.30;;;;;;5056178;28;20108;-70
2023/08/13 07:37:57;;;;;;;5.68;1.27;;;15.20;73.60;;;;;;5055995;28;20347;-70
2023/08/13 07:40:25;;;;;;;3.08;0.90;;;15.20;73.60;;;;;;5055077;28;20025;-69
2023/08/13 07:42:57;;;;;;;3.97;1.02;;;15.20;73.40;;;;;;5055584;28;20027;-69
2023/08/13 07:45:25;;;;;;;5.95;2.03;;;15.10;73.40;;;;;;5055550;28;20032;-69
2023/08/13 07:47:52;;;;;;;3.92;1.15;;;15.10;73.80;;;;;;5055994;28;20324;-70
2023/08/13 07:50:20;;;;;;;4.47;1.25;;;15.10;74.30;;;;;;5056052;28;20108;-71
2023/08/13 07:52:47;;;;;;;5.43;1.60;;;15.10;74.40;;;;;;5055014;28;20048;-70
2023/08/13 07:55:15;;;;;;;5.43;1.50;;;15.00;75.00;;;;;;5054920;28;20060;-69
2023/08/13 07:57:43;;;;;;;4.32;1.20;;;15.00;74.70;;;;;;5054084;28;20036;-69
2023/08/13 08:00:11;;;;;;;2.72;0.80;;;15.00;76.10;;;;;;5054891;28;20056;-69
2023/08/13 08:02:39;;;;;;;4.18;1.27;;;15.00;75.60;;;;;;5055001;28;20091;-66
2023/08/13 08:05:07;;;;;;;5.05;1.33;;;14.90;76.80;;;;;;5055534;28;20063;-64
2023/08/13 08:07:35;;;;;;;5.28;1.83;;;14.90;76.50;;;;;;5055240;28;20047;-64
2023/08/13 08:10:03;;;;;;;6.53;3.10;;;14.80;77.10;;;;;;5054476;28;20021;-64
2023/08/13 08:12:31;;;;;;;5.88;1.92;;;14.90;77.10;;;;;;5054689;28;20145;-64
2023/08/13 08:14:58;;;;;;;4.32;1.60;;;14.80;76.80;;;;;;5054582;28;20663;-64
2023/08/13 08:17:26;;;;;;;7.40;2.17;;;14.70;77.10;;;;;;5055395;28;20099;-64
2023/08/13 08:19:54;;;;;;;6.93;2.00;;;14.70;77.30;;;;;;5055120;28;20064;-65
2023/08/13 08:22:21;;;;;;;8.38;2.40;;;14.70;77.80;;;;;;5054599;28;20166;-64
2023/08/13 08:24:50;;;;;;;7.30;2.13;;;14.80;77.70;;;;;;5054567;28;20364;-64
2023/08/13 08:27:18;;;;;;;5.57;1.48;;;14.70;77.60;;;;;;5054366;28;20416;-65
2023/08/13 08:29:45;;;;;;;3.40;1.20;;;14.70;77.70;;;;;;5054417;28;20108;-65
2023/08/13 08:32:13;;;;;;;4.28;1.67;;;14.70;77.80;;;;;;5055469;28;20440;-64
2023/08/13 08:34:41;;;;;;;5.00;1.45;;;14.60;78.00;;;;;;5055506;28;20049;-65
2023/08/13 08:37:11;;;;;;;6.15;1.40;;;14.70;78.10;;;;;;5055062;28;20020;-65
2023/08/13 08:39:39;;;;;;;6.13;1.60;;;14.70;77.90;;;;;;5054995;28;20108;-65
2023/08/13 08:42:10;;;;;;;5.22;1.42;;;14.60;78.10;;;;;;5055247;28;20390;-64
2023/08/13 08:44:43;;;;;;;9.35;1.42;;;14.60;78.20;;;;;;5055008;28;20025;-65
2023/08/13 08:47:11;;;;;;;4.93;1.10;;;14.60;78.30;;;;;;5053976;28;20035;-66
2023/08/13 08:49:39;;;;;;;5.18;1.52;;;14.60;78.30;;;;;;5054621;28;20059;-67
2023/08/13 08:52:07;;;;;;;4.68;1.65;;;14.50;78.40;;;;;;5056065;28;20414;-66
2023/08/13 08:54:39;;;;;;;6.43;1.33;;;14.60;78.60;;;;;;5055173;28;20335;-66
2023/08/13 08:57:07;;;;;;;5.97;1.60;;;14.50;78.20;;;;;;5054085;28;20052;-67
2023/08/13 08:59:36;;;;;;;5.60;1.50;;;14.50;78.50;;;;;;5054076;28;20048;-67
2023/08/13 09:02:05;;;;;;;6.05;1.70;;;14.50;78.20;;;;;;5054451;28;20075;-66
2023/08/13 09:04:32;;;;;;;5.63;1.70;;;14.50;78.30;;;;;;5055210;28;20040;-67
2023/08/13 09:07:06;;;;;;;4.32;1.30;;;14.50;78.00;;;;;;5054840;28;20128;-67
2023/08/13 09:09:33;;;;;;;9.02;1.95;;;14.50;77.90;;;;;;5057556;28;20020;-64
2023/08/13 09:12:01;;;;;;;6.65;1.70;;;14.50;77.90;;;;;;5058324;28;20127;-65
2023/08/13 09:14:29;;;;;;;5.90;1.88;;;14.50;77.90;;;;;;5058146;28;20447;-64
2023/08/13 09:16:58;;;;;;;8.10;1.90;;;14.40;78.30;;;;;;5059075;28;20153;-66
2023/08/13 09:19:28;;;;;;;10.95;2.55;;;14.50;78.50;;;;;;5058992;28;20021;-66
2023/08/13 09:21:59;;;;;;;10.40;3.20;;;14.50;78.20;;;;;;5057946;28;20040;-68
2023/08/13 09:24:34;;;;;;;6.32;1.60;;;14.50;78.00;;;;;;5059495;28;20039;-66
2023/08/13 09:27:03;;;;;;;7.78;1.90;;;14.50;77.60;;;;;;5057782;28;20025;-67
2023/08/13 09:29:31;;;;;;;7.68;1.63;;;14.40;77.90;;;;;;5057794;28;20350;-67
2023/08/13 09:32:03;;;;;;;10.68;2.72;;;14.50;77.90;;;;;;5057832;28;20455;-67
2023/08/13 09:34:35;;;;;;;6.72;1.38;;;14.40;77.80;;;;;;5058797;28;20100;-66
2023/08/13 09:37:03;;;;;;;4.68;1.40;;;14.50;77.90;;;;;;5058699;28;20043;-68
2023/08/13 09:39:31;;;;;;;7.03;1.70;;;14.50;77.90;;;;;;5057756;28;20025;-66
2023/08/13 09:42:00;;;;;;;5.30;1.85;;;14.50;77.60;;;;;;5057568;28;20071;-67
2023/08/13 09:44:29;;;;;;;5.88;1.40;;;14.50;77.90;;;;;;5057542;28;20029;-67
2023/08/13 09:47:04;;;;;;;8.68;1.98;;;14.50;77.80;;;;;;5058359;28;20083;-67
2023/08/13 09:49:34;;;;;;;6.05;1.42;;;14.50;77.80;;;;;;5057484;28;20032;-68
2023/08/13 09:52:08;;;;;;;4.55;1.30;;;14.50;77.80;;;;;;5058316;28;20078;-67
2023/08/13 09:54:49;;;;;;;6.97;1.60;;;14.50;77.50;;;;;;5058443;28;20025;-67
2023/08/13 09:57:19;;;;;;;5.55;1.70;;;14.60;77.40;;;;;;5057195;28;20047;-68
2023/08/13 09:59:49;;;;;;;6.93;2.13;;;14.60;77.40;;;;;;5058227;28;20032;-67
2023/08/13 10:02:18;;;;;;;6.82;1.85;;;14.50;77.50;;;;;;5058159;28;20025;-67
2023/08/13 10:04:46;;;;;;;7.07;2.10;;;14.60;77.50;;;;;;5057321;28;20383;-67
2023/08/13 10:07:14;;;;;;;7.97;2.28;;;14.50;77.40;;;;;;5056834;28;20471;-67
2023/08/13 10:09:42;;;;;;;5.43;1.60;;;14.60;77.10;;;;;;5058161;28;20029;-67
2023/08/13 10:12:12;;;;;;;6.05;1.90;;;14.60;76.80;;;;;;5058019;28;20059;-67
2023/08/13 10:14:40;;;;;;;6.55;1.30;;;14.50;76.40;;;;;;5057029;28;20321;-67
2023/08/13 10:17:08;;;;;;;5.57;1.65;;;14.50;76.40;;;;;;5058555;28;20406;-65
2023/08/13 10:19:40;;;;;;;5.35;1.77;;;14.50;76.40;;;;;;5057561;28;20025;-64
2023/08/13 10:22:12;;;;;;;6.05;2.33;;;14.50;76.50;;;;;;5057963;28;20059;-64
2023/08/13 10:24:43;;;;;;;5.00;1.70;;;14.50;76.50;;;;;;5057734;28;20033;-64
2023/08/13 10:27:13;;;;;;;9.25;1.90;;;14.50;76.50;;;;;;5057632;28;20473;-65
2023/08/13 10:29:43;;;;;;;7.00;1.92;;;14.50;76.30;;;;;;5057993;28;20347;-64
2023/08/13 10:32:16;;;;;;;5.18;2.22;;;14.50;76.30;;;;;;5057153;28;20021;-65
2023/08/13 10:34:53;;;;;;;;;;;14.50;76.40;;;;;;5058328;28;20379;-64
2023/08/13 10:37:23;;;;;;;5.85;1.35;;;14.50;76.20;;;;;;5073212;28;19916;-64
2023/08/13 10:39:56;;;;;;;5.90;2.53;;;14.60;76.10;;;;;;5056670;28;20021;-67
2023/08/13 10:42:32;;;;;;;5.40;2.20;;;14.60;76.30;;;;;;5057443;28;20032;-66
2023/08/13 10:45:10;;;;;;;4.72;1.95;;;14.60;76.20;;;;;;5056422;28;20025;-67
2023/08/13 10:47:48;;;;;;;7.22;2.10;;;14.60;76.30;;;;;;5057329;28;20458;-66
2023/08/13 10:50:36;;;;;;;6.13;2.13;;;14.50;76.40;;;;;;5057355;28;20351;-66
2023/08/13 10:53:11;;;;;;;5.80;2.60;;;14.60;76.40;;;;;;5056214;28;20021;-67
2023/08/13 10:55:56;;;;;;;15.65;8.30;;;14.50;76.40;;;;;;5056138;28;20028;-67
2023/08/13 10:58:30;;;;;;;14.52;5.20;;;14.50;76.60;;;;;;5057042;28;20032;-67
2023/08/13 11:01:20;;;;;;;8.40;3.15;;;14.50;76.50;;;;;;5057128;28;20028;-67
2023/08/13 11:03:52;;;;;;;9.23;2.60;;;14.50;76.40;;;;;;5056034;28;20048;-67
2023/08/13 11:06:25;;;;;;;5.47;2.28;;;14.60;76.20;;;;;;5055570;28;20040;-67
2023/08/13 11:08:53;;;;;;;9.38;2.42;;;14.50;76.50;;;;;;5055838;28;20447;-67
2023/08/13 11:11:21;;;;;;;7.18;2.25;;;14.50;76.40;;;;;;5056884;28;20074;-67
2023/08/13 11:13:50;;;;;;;7.10;2.30;;;14.50;76.40;;;;;;5056165;28;20020;-67
2023/08/13 11:16:17;;;;;;;7.43;2.95;;;14.50;76.50;;;;;;5056791;28;20021;-67
2023/08/13 11:18:45;;;;;;;7.00;2.30;;;14.50;76.50;;;;;;5055662;28;20040;-68
2023/08/13 11:21:13;;;;;;;5.72;2.65;;;14.50;76.70;;;;;;5055639;28;20451;-68
2023/08/13 11:23:40;;;;;;;5.78;2.05;;;14.50;77.20;;;;;;5055605;28;20037;-67
2023/08/13 11:26:08;;;;;;;6.65;2.53;;;14.60;77.60;;;;;;5056558;28;20025;-67
2023/08/13 11:28:35;;;;;;;4.38;2.20;;;14.50;78.30;;;;;;5055377;28;20017;-67
2023/08/13 11:31:03;;;;;;;7.43;2.50;;;14.40;78.70;;;;;;5055184;28;20116;-67
2023/08/13 11:33:30;;;;;;;7.90;2.50;;;14.40;79.40;;;;;;5055377;28;20032;-67
2023/08/13 11:35:59;;;;;;;6.25;2.50;;;14.40;79.50;;;;;;5056587;28;20100;-67
2023/08/13 11:38:27;;;;;;;7.70;2.50;;;14.40;79.40;;;;;;5056452;28;20024;-67
2023/08/13 11:40:54;;;;;;;4.65;2.20;;;14.40;79.60;;;;;;5055826;28;20025;-67
2023/08/13 11:43:22;;;;;;;8.35;2.60;;;14.40;79.80;;;;;;5055436;28;20074;-67
2023/08/13 11:45:50;;;;;;;7.93;2.47;;;14.40;80.10;;;;;;5056247;28;20332;-69
2023/08/13 11:48:22;;;;;;;8.38;2.47;;;14.40;80.00;;;;;;5055217;28;20465;-67
2023/08/13 11:51:12;;;;;;;7.07;2.28;;;14.30;80.60;;;;;;5055193;28;20016;-67
2023/08/13 11:53:47;;;;;;;7.82;2.50;;;14.30;80.80;;;;;;5055159;28;20017;-66
2023/08/13 11:56:16;;;;;;;6.47;2.10;;;14.20;80.90;;;;;;5056137;28;20024;-67
2023/08/13 11:58:45;;;;;;;9.55;2.22;;;14.20;81.40;;;;;;5054957;28;20443;-67
2023/08/13 12:01:15;;;;;;;6.72;2.03;;;14.20;81.60;;;;;;5056001;28;20443;-67
2023/08/13 12:03:44;;;;;;;5.25;2.15;;;14.20;81.60;;;;;;5054835;28;20409;-67
2023/08/13 12:06:12;;;;;;;9.02;2.33;;;14.00;82.30;;;;;;5055547;28;20040;-67
2023/08/13 12:08:46;;;;;;;9.48;2.00;;;14.10;82.30;;;;;;5055717;28;20021;-66
2023/08/13 12:11:13;;;;;;;6.28;1.83;;;14.10;82.40;;;;;;5054905;28;20036;-66
2023/08/13 12:13:42;;;;;;;6.38;2.25;;;13.90;83.00;;;;;;5055760;28;20100;-66
2023/08/13 12:16:10;;;;;;;8.00;2.72;;;13.90;83.30;;;;;;5054758;28;20031;-67
2023/08/13 12:18:38;;;;;;;10.07;3.20;;;13.70;84.00;;;;;;5055603;28;20071;-66
2023/08/13 12:21:05;;;;;;;7.30;2.95;;;13.60;84.60;;;;;;5054679;28;20028;-67
2023/08/13 12:23:33;;;;;;;8.55;2.88;;;13.60;85.20;;;;;;5054638;28;20039;-67
2023/08/13 12:26:01;;;;;;;7.05;3.05;;;13.70;85.50;;;;;;5054762;28;20025;-68
2023/08/13 12:28:29;;;;;;;9.15;2.78;;;13.70;85.70;;;;;;5054435;28;20025;-68
2023/08/13 12:30:57;;;;;;;7.50;3.50;;;13.80;85.90;;;;;;5055420;28;20045;-68
2023/08/13 12:33:25;;;;;;;10.70;4.40;;;13.70;85.90;;;;;;5055643;28;20027;-68
2023/08/13 12:35:52;;;;;;;9.77;3.78;;;13.70;86.00;;;;;;5055392;28;20112;-68
2023/08/13 12:38:20;;;;;;;10.35;3.95;;;13.70;86.30;;;;;;5055245;28;20100;-68
2023/08/13 12:40:47;;;;;;;10.45;3.40;;;13.60;86.20;;;;;;5054454;28;20150;-68
2023/08/13 12:43:15;;;;;;;12.38;3.53;;;13.60;86.40;;;;;;5055036;28;20064;-69
2023/08/13 12:45:42;;;;;;;11.52;3.42;;;13.60;86.50;;;;;;5055123;28;20021;-68
2023/08/13 12:48:10;;;;;;;10.50;3.92;;;13.50;86.80;;;;;;5055147;28;20025;-63
2023/08/13 12:50:37;;;;;;;10.25;4.32;;;13.50;87.00;;;;;;5055118;28;20013;-68
2023/08/13 12:53:05;;;;;;;11.20;4.93;;;13.40;87.10;;;;;;5055093;28;20029;-68